Time;durP1;ratioP1;P1;durP2;ratioP2;P2;SDS_P1;SDS_P2;PMS_P1;PMS_P2;Temp;Humidity;BMP_temperature;BMP_pressure;BME280_temperature;BME280_humidity;BME280_pressure;Samples;Min_cycle;Max_cycle;Signal;HPM_P1;HPM_P2
2021/01/26 00:00:20;;;;;;;24.13;15.27;;;;;;;;;;6395905;22;20175;-55
2021/01/26 00:02:49;;;;;;;30.58;17.80;;;;;;;;;;6396467;22;20192;-53
2021/01/26 00:05:25;;;;;;;23.85;12.93;;;;;;;;;;6395762;22;20185;-47
2021/01/26 00:07:51;;;;;;;21.88;11.35;;;;;;;;;;6396245;22;20240;-45
2021/01/26 00:10:18;;;;;;;28.13;12.52;;;;;;;;;;6396217;22;20161;-54
2021/01/26 00:13:01;;;;;;;18.88;11.98;;;;;;;;;;6397051;22;20196;-54
2021/01/26 00:15:28;;;;;;;20.38;13.55;;;;;;;;;;6397012;22;20181;-58
2021/01/26 00:17:58;;;;;;;19.98;11.43;;;;;;;;;;6397293;22;20352;-57
2021/01/26 00:20:46;;;;;;;21.83;10.25;;;;;;;;;;6397104;22;20207;-56
2021/01/26 00:23:14;;;;;;;20.92;11.05;;;;;;;;;;6396700;22;20201;-52
2021/01/26 00:25:41;;;;;;;16.15;11.32;;;;;;;;;;6396078;22;20195;-60
2021/01/26 00:28:10;;;;;;;23.45;15.05;;;;;;;;;;6394920;22;20178;-50
2021/01/26 00:30:38;;;;;;;18.52;10.98;;;;;;;;;;6396166;22;20214;-53
2021/01/26 00:33:21;;;;;;;16.40;10.45;;;;;;;;;;6396432;22;20193;-53
2021/01/26 00:35:48;;;;;;;23.40;13.57;;;;;;;;;;6396670;22;20191;-59
2021/01/26 00:38:16;;;;;;;22.15;12.07;;;;;;;;;;6396329;22;20187;-53
2021/01/26 00:40:43;;;;;;;22.45;12.82;;;;;;;;;;6396676;22;20202;-56
2021/01/26 00:43:11;;;;;;;19.00;12.48;;;;;;;;;;6395878;22;20257;-56
2021/01/26 00:45:50;;;;;;;23.73;12.40;;;;;;;;;;6396184;22;20150;-48
2021/01/26 00:48:17;;;;;;;19.85;13.15;;;;;;;;;;6396865;22;20184;-50
2021/01/26 00:50:45;;;;;;;20.65;12.38;;;;;;;;;;6395865;22;20180;-50
2021/01/26 00:53:35;;;;;;;20.70;11.35;;;;;;;;;;6396393;22;20167;-54
2021/01/26 00:56:02;;;;;;;19.35;11.88;;;;;;;;;;6394507;22;20237;-54
2021/01/26 00:58:30;;;;;;;19.27;10.82;;;;;;;;;;6396119;22;20393;-54
2021/01/26 01:01:02;;;;;;;18.08;11.05;;;;;;;;;;6395020;22;20180;-51
2021/01/26 01:03:29;;;;;;;26.00;13.15;;;;;;;;;;6394368;22;20193;-55
2021/01/26 01:05:57;;;;;;;14.75;9.23;;;;;;;;;;6369156;22;20173;-51
2021/01/26 01:08:24;;;;;;;23.42;10.60;;;;;;;;;;6395659;22;20182;-52
2021/01/26 01:10:51;;;;;;;30.08;11.20;;;;;;;;;;6395495;22;20177;-56
2021/01/26 01:13:18;;;;;;;16.83;9.20;;;;;;;;;;6394585;22;20207;-59
2021/01/26 01:15:50;;;;;;;24.90;13.18;;;;;;;;;;6395711;22;20161;-51
2021/01/26 01:18:17;;;;;;;18.92;10.63;;;;;;;;;;6395914;22;20181;-54
2021/01/26 01:20:44;;;;;;;22.85;9.65;;;;;;;;;;6396013;22;20177;-47
2021/01/26 01:23:21;;;;;;;14.02;10.02;;;;;;;;;;6395048;22;20193;-53
2021/01/26 01:25:48;;;;;;;14.05;8.73;;;;;;;;;;6395439;22;20168;-48
2021/01/26 01:28:15;;;;;;;19.95;9.75;;;;;;;;;;6395425;22;20191;-53
2021/01/26 01:30:50;;;;;;;19.35;9.30;;;;;;;;;;6396016;22;20177;-47
2021/01/26 01:33:16;;;;;;;26.02;13.82;;;;;;;;;;6396039;22;20182;-47
2021/01/26 01:35:43;;;;;;;16.42;9.70;;;;;;;;;;6395267;22;20181;-49
2021/01/26 01:38:17;;;;;;;21.65;14.65;;;;;;;;;;6396086;22;20188;-51
2021/01/26 01:40:44;;;;;;;32.10;11.10;;;;;;;;;;6395964;22;20185;-50
2021/01/26 01:43:11;;;;;;;18.10;11.63;;;;;;;;;;6395442;22;20388;-54
2021/01/26 01:45:56;;;;;;;21.15;11.05;;;;;;;;;;6395623;22;20166;-56
2021/01/26 01:48:24;;;;;;;14.07;8.57;;;;;;;;;;6394870;22;20172;-48
2021/01/26 01:50:53;;;;;;;16.92;10.27;;;;;;;;;;6395093;22;20173;-57
2021/01/26 01:53:23;;;;;;;23.45;8.40;;;;;;;;;;6394921;22;20168;-53
2021/01/26 01:55:52;;;;;;;18.15;9.43;;;;;;;;;;6394808;22;20324;-50
2021/01/26 01:58:21;;;;;;;15.93;8.75;;;;;;;;;;6395029;22;20273;-58
2021/01/26 02:03:54;;;;;;;16.60;8.45;;;;;;;;;;6394665;22;20266;-54
2021/01/26 02:06:23;;;;;;;17.58;10.30;;;;;;;;;;6395158;22;20179;-59
2021/01/26 02:09:04;;;;;;;15.75;8.05;;;;;;;;;;6396095;22;20202;-55
2021/01/26 02:11:31;;;;;;;17.30;9.95;;;;;;;;;;6396165;22;20219;-56
2021/01/26 02:13:58;;;;;;;14.18;8.80;;;;;;;;;;6396255;22;20191;-56
2021/01/26 02:16:40;;;;;;;17.95;9.13;;;;;;;;;;6396440;22;20177;-48
2021/01/26 02:19:22;;;;;;;16.80;8.60;;;;;;;;;;6388598;22;20177;-57
2021/01/26 02:22:22;;;;;;;18.60;8.93;;;;;;;;;;6396065;22;20158;-56
2021/01/26 02:25:04;;;;;;;17.83;11.07;;;;;;;;;;6239127;23;20300;-47
2021/01/26 02:30:43;;;;;;;21.83;8.82;;;;;;;;;;6367939;22;20211;-58
2021/01/26 02:33:36;;;;;;;21.58;8.32;;;;;;;;;;6398317;22;20185;-53
2021/01/26 02:36:30;;;;;;;16.02;8.55;;;;;;;;;;6397246;22;20203;-53
2021/01/26 02:39:07;;;;;;;17.05;7.75;;;;;;;;;;6398963;22;20173;-58
2021/01/26 02:41:43;;;;;;;17.15;9.90;;;;;;;;;;6398028;22;20165;-55
2021/01/26 02:44:29;;;;;;;21.27;15.20;;;;;;;;;;6395278;22;20201;-57
2021/01/26 02:47:01;;;;;;;18.05;9.75;;;;;;;;;;6397625;22;20193;-53
2021/01/26 02:49:32;;;;;;;13.80;7.60;;;;;;;;;;6398194;22;20166;-56
2021/01/26 02:52:05;;;;;;;13.18;9.00;;;;;;;;;;6397405;22;20165;-55
2021/01/26 02:54:38;;;;;;;22.02;8.55;;;;;;;;;;6397554;22;20203;-58
2021/01/26 02:57:09;;;;;;;18.75;8.45;;;;;;;;;;6397095;22;20179;-56
2021/01/26 02:59:40;;;;;;;12.77;7.90;;;;;;;;;;6397479;22;20180;-56
2021/01/26 03:02:16;;;;;;;17.45;9.57;;;;;;;;;;6397151;22;20275;-54
2021/01/26 03:04:47;;;;;;;16.70;7.90;;;;;;;;;;6397218;22;20184;-56
2021/01/26 03:07:15;;;;;;;20.27;9.57;;;;;;;;;;6397723;22;20189;-52
2021/01/26 03:09:44;;;;;;;13.25;10.05;;;;;;;;;;6397598;22;20169;-56
2021/01/26 03:12:16;;;;;;;17.25;9.48;;;;;;;;;;6397637;22;20199;-53
2021/01/26 03:14:45;;;;;;;10.38;8.05;;;;;;;;;;6396693;22;20188;-57
2021/01/26 03:17:15;;;;;;;19.17;9.05;;;;;;;;;;6397379;22;20169;-56
2021/01/26 03:19:46;;;;;;;21.63;14.77;;;;;;;;;;6396803;22;20173;-58
2021/01/26 03:22:14;;;;;;;14.68;9.27;;;;;;;;;;6397379;22;20172;-54
2021/01/26 03:24:51;;;;;;;25.23;10.27;;;;;;;;;;6396789;22;20185;-53
2021/01/26 03:27:23;;;;;;;14.65;8.40;;;;;;;;;;6397278;22;20192;-52
2021/01/26 03:29:52;;;;;;;16.67;7.15;;;;;;;;;;6396841;22;20181;-58
2021/01/26 03:32:21;;;;;;;12.95;7.20;;;;;;;;;;6396715;22;20180;-52
2021/01/26 03:34:48;;;;;;;15.70;8.10;;;;;;;;;;6396792;22;20184;-52
2021/01/26 03:37:22;;;;;;;19.08;7.20;;;;;;;;;;6397214;22;20154;-52
2021/01/26 03:39:48;;;;;;;13.93;9.45;;;;;;;;;;6396667;22;20165;-46
2021/01/26 03:42:15;;;;;;;12.98;7.22;;;;;;;;;;6396290;22;20169;-56
2021/01/26 03:44:43;;;;;;;14.52;8.40;;;;;;;;;;6396910;22;20202;-52
2021/01/26 03:47:26;;;;;;;19.40;9.05;;;;;;;;;;6396750;22;20204;-52
2021/01/26 03:50:05;;;;;;;16.98;7.47;;;;;;;;;;6392648;22;20189;-50
2021/01/26 03:52:39;;;;;;;11.13;7.15;;;;;;;;;;6396576;22;20177;-47
2021/01/26 03:55:09;;;;;;;18.45;10.55;;;;;;;;;;6397147;22;20150;-51
2021/01/26 04:00:43;;;;;;;10.25;7.15;;;;;;;;;;6396653;22;20151;-51
2021/01/26 04:03:25;;;;;;;10.88;6.40;;;;;;;;;;6397391;22;20172;-57
2021/01/26 04:06:15;;;;;;;16.10;8.10;;;;;;;;;;6366777;22;20203;-53
2021/01/26 04:08:45;;;;;;;15.43;8.55;;;;;;;;;;6397636;22;20178;-55
2021/01/26 04:11:14;;;;;;;17.50;7.88;;;;;;;;;;6397224;22;20313;-53
2021/01/26 04:13:44;;;;;;;18.70;7.82;;;;;;;;;;6394917;22;20213;-60
2021/01/26 04:16:14;;;;;;;13.15;7.13;;;;;;;;;;6396333;22;20165;-50
2021/01/26 04:18:51;;;;;;;10.82;7.18;;;;;;;;;;6396636;22;20161;-56
2021/01/26 04:21:18;;;;;;;12.75;8.40;;;;;;;;;;6396740;22;20165;-58
2021/01/26 04:23:45;;;;;;;13.35;8.25;;;;;;;;;;6395962;22;20198;-50
2021/01/26 04:26:15;;;;;;;21.05;8.73;;;;;;;;;;6395915;22;20176;-51
2021/01/26 04:28:43;;;;;;;12.77;6.57;;;;;;;;;;6395740;22;20181;-54
2021/01/26 04:31:11;;;;;;;13.68;8.10;;;;;;;;;;6395464;22;20167;-59
2021/01/26 04:33:44;;;;;;;15.60;8.52;;;;;;;;;;6396285;22;20185;-60
2021/01/26 04:36:11;;;;;;;15.40;7.53;;;;;;;;;;6396146;22;20223;-56
2021/01/26 04:38:41;;;;;;;13.95;6.63;;;;;;;;;;6395523;22;20181;-54
2021/01/26 04:41:11;;;;;;;13.38;6.35;;;;;;;;;;6395707;22;20212;-59
2021/01/26 04:43:39;;;;;;;14.20;7.05;;;;;;;;;;6395868;22;20205;-56
2021/01/26 04:46:37;;;;;;;15.73;6.88;;;;;;;;;;6396110;22;20166;-60
2021/01/26 04:49:08;;;;;;;17.17;8.75;;;;;;;;;;6395993;22;20185;-54
2021/01/26 04:51:39;;;;;;;18.52;7.18;;;;;;;;;;6396915;22;20154;-52
2021/01/26 04:54:31;;;;;;;13.90;6.97;;;;;;;;;;6397625;22;20218;-54
2021/01/26 04:57:06;;;;;;;13.45;6.75;;;;;;;;;;6397423;22;20176;-57
2021/01/26 04:59:47;;;;;;;12.10;7.10;;;;;;;;;;6397867;22;20176;-58
2021/01/26 05:02:32;;;;;;;17.10;7.05;;;;;;;;;;6396933;22;20180;-50
2021/01/26 05:05:01;;;;;;;20.20;7.22;;;;;;;;;;6395938;22;20198;-58
2021/01/26 05:07:29;;;;;;;13.93;6.65;;;;;;;;;;6396153;22;20471;-60
2021/01/26 05:10:13;;;;;;;10.57;7.03;;;;;;;;;;6396278;22;20161;-56
2021/01/26 05:12:43;;;;;;;11.77;7.07;;;;;;;;;;6395924;22;20168;-57
2021/01/26 05:15:13;;;;;;;16.25;7.53;;;;;;;;;;6395978;22;20202;-53
2021/01/26 05:17:48;;;;;;;13.27;6.93;;;;;;;;;;6396308;22;20164;-55
2021/01/26 05:20:22;;;;;;;8.68;5.80;;;;;;;;;;6395722;22;20169;-57
2021/01/26 05:22:50;;;;;;;9.65;6.05;;;;;;;;;;6395731;22;20164;-52
2021/01/26 05:25:19;;;;;;;8.98;5.03;;;;;;;;;;6395158;22;20186;-55
2021/01/26 05:27:47;;;;;;;9.70;6.93;;;;;;;;;;6395293;22;20165;-55
2021/01/26 05:30:33;;;;;;;13.80;6.85;;;;;;;;;;6395313;22;20169;-56
2021/01/26 05:33:00;;;;;;;20.20;7.68;;;;;;;;;;6394962;22;20186;-55
2021/01/26 05:35:28;;;;;;;14.25;5.68;;;;;;;;;;6395146;22;20173;-56
2021/01/26 05:37:55;;;;;;;10.70;7.13;;;;;;;;;;6394270;22;20178;-54
2021/01/26 05:40:24;;;;;;;14.18;5.55;;;;;;;;;;6395590;22;20248;-51
2021/01/26 05:43:15;;;;;;;16.20;6.40;;;;;;;;;;6394693;22;20190;-59
2021/01/26 05:45:43;;;;;;;13.45;7.05;;;;;;;;;;6395880;22;20225;-54
2021/01/26 05:48:11;;;;;;;19.75;7.72;;;;;;;;;;6395110;22;20181;-58
2021/01/26 05:50:50;;;;;;;15.15;6.70;;;;;;;;;;6396274;22;20178;-56
2021/01/26 05:53:20;;;;;;;26.27;6.95;;;;;;;;;;6397101;22;20181;-53
2021/01/26 05:55:57;;;;;;;11.35;7.40;;;;;;;;;;6395714;22;20173;-53
2021/01/26 05:58:33;;;;;;;18.30;7.68;;;;;;;;;;6395234;22;20191;-57
2021/01/26 06:01:01;;;;;;;10.95;6.30;;;;;;;;;;6398461;22;20153;-54
2021/01/26 06:03:39;;;;;;;14.40;7.15;;;;;;;;;;6399550;22;20177;-53
2021/01/26 06:06:10;;;;;;;11.43;7.57;;;;;;;;;;6399723;22;20173;-53
2021/01/26 06:08:49;;;;;;;11.82;6.47;;;;;;;;;;6399429;22;20190;-53
2021/01/26 06:11:17;;;;;;;14.13;7.75;;;;;;;;;;6398627;22;20177;-56
2021/01/26 06:13:44;;;;;;;13.13;7.60;;;;;;;;;;6398652;22;20184;-58
2021/01/26 06:16:14;;;;;;;12.60;8.23;;;;;;;;;;6398698;22;20153;-55
2021/01/26 06:18:55;;;;;;;11.27;6.60;;;;;;;;;;6398768;22;20165;-54
2021/01/26 06:21:32;;;;;;;18.55;7.25;;;;;;;;;;6398235;22;20172;-57
2021/01/26 06:24:00;;;;;;;13.13;8.20;;;;;;;;;;6399067;22;20284;-51
2021/01/26 06:26:29;;;;;;;12.48;8.07;;;;;;;;;;6398739;22;20184;-53
2021/01/26 06:29:03;;;;;;;13.02;7.05;;;;;;;;;;6398972;22;20180;-54
2021/01/26 06:31:35;;;;;;;17.73;6.80;;;;;;;;;;6397899;22;20177;-57
2021/01/26 06:34:17;;;;;;;12.55;6.75;;;;;;;;;;6398096;22;20157;-57
2021/01/26 06:37:07;;;;;;;15.25;6.70;;;;;;;;;;6393663;22;20169;-56
2021/01/26 06:39:48;;;;;;;19.13;7.15;;;;;;;;;;6398002;22;20173;-56
2021/01/26 06:42:31;;;;;;;15.40;7.53;;;;;;;;;;6393129;22;20169;-58
2021/01/26 06:45:03;;;;;;;12.15;7.03;;;;;;;;;;6398007;22;20193;-60
2021/01/26 06:47:43;;;;;;;12.25;6.93;;;;;;;;;;6398383;22;20200;-48
2021/01/26 06:50:17;;;;;;;14.32;7.25;;;;;;;;;;6397633;22;20196;-54
2021/01/26 06:52:53;;;;;;;12.85;7.57;;;;;;;;;;6397148;22;20176;-53
2021/01/26 06:55:32;;;;;;;10.63;7.15;;;;;;;;;;6397952;22;20176;-57
2021/01/26 06:58:18;;;;;;;17.92;8.27;;;;;;;;;;6396310;22;20154;-49
2021/01/26 07:00:51;;;;;;;12.05;6.43;;;;;;;;;;6397379;22;20210;-57
2021/01/26 07:03:28;;;;;;;24.63;7.70;;;;;;;;;;6397455;22;20176;-57
2021/01/26 07:06:03;;;;;;;14.35;9.18;;;;;;;;;;6396884;22;20182;-53
2021/01/26 07:08:48;;;;;;;15.20;7.60;;;;;;;;;;6397667;22;20169;-58
2021/01/26 07:11:45;;;;;;;14.10;7.20;;;;;;;;;;6396853;22;20212;-58
2021/01/26 07:14:36;;;;;;;11.18;6.15;;;;;;;;;;6395578;22;20192;-51
2021/01/26 07:17:07;;;;;;;17.42;6.68;;;;;;;;;;6396697;22;20236;-56
2021/01/26 07:19:38;;;;;;;13.52;6.85;;;;;;;;;;6395695;22;20200;-57
2021/01/26 07:22:26;;;;;;;15.23;7.60;;;;;;;;;;6395559;22;20169;-55
2021/01/26 07:25:06;;;;;;;11.32;7.97;;;;;;;;;;6395627;22;20185;-57
2021/01/26 07:27:41;;;;;;;10.35;6.95;;;;;;;;;;6396575;22;20185;-53
2021/01/26 07:30:14;;;;;;;12.75;7.40;;;;;;;;;;6396349;22;20163;-54
2021/01/26 07:32:45;;;;;;;14.80;6.95;;;;;;;;;;6396110;22;20165;-51
2021/01/26 07:35:15;;;;;;;12.48;7.57;;;;;;;;;;6396658;22;20186;-58
2021/01/26 07:37:50;;;;;;;15.43;6.45;;;;;;;;;;6396532;22;20172;-59
2021/01/26 07:40:21;;;;;;;26.60;8.43;;;;;;;;;;6396899;22;20272;-58
2021/01/26 07:42:54;;;;;;;14.30;7.43;;;;;;;;;;6396839;22;20149;-54
2021/01/26 07:45:26;;;;;;;15.43;7.88;;;;;;;;;;6395790;22;20247;-53
2021/01/26 07:47:56;;;;;;;18.83;7.78;;;;;;;;;;6395246;22;20226;-58
2021/01/26 07:50:25;;;;;;;12.25;7.47;;;;;;;;;;6395428;22;20178;-56
2021/01/26 07:53:19;;;;;;;16.90;7.45;;;;;;;;;;6395068;22;20187;-55
2021/01/26 07:55:48;;;;;;;19.10;7.85;;;;;;;;;;6395287;22;20205;-59
2021/01/26 07:58:16;;;;;;;11.02;7.00;;;;;;;;;;6394015;22;20169;-57
2021/01/26 08:00:48;;;;;;;12.65;7.80;;;;;;;;;;6394568;22;20165;-55
2021/01/26 08:03:22;;;;;;;10.27;6.88;;;;;;;;;;6395375;22;20166;-51
2021/01/26 08:05:50;;;;;;;13.88;7.90;;;;;;;;;;6395409;22;20150;-60
2021/01/26 08:08:19;;;;;;;19.17;6.82;;;;;;;;;;6395959;22;20198;-55
2021/01/26 08:10:46;;;;;;;21.60;8.60;;;;;;;;;;6394823;22;20179;-54
2021/01/26 08:13:25;;;;;;;24.80;9.07;;;;;;;;;;6393875;22;20181;-58
2021/01/26 08:15:55;;;;;;;16.58;5.88;;;;;;;;;;6394966;22;20277;-58
2021/01/26 08:18:25;;;;;;;13.60;6.90;;;;;;;;;;6394733;22;20193;-55
2021/01/26 08:21:27;;;;;;;21.08;7.10;;;;;;;;;;6394818;22;20180;-55
2021/01/26 08:24:08;;;;;;;11.18;6.72;;;;;;;;;;6393525;22;20220;-55
2021/01/26 08:26:36;;;;;;;11.90;5.85;;;;;;;;;;6394568;22;20185;-58
2021/01/26 08:29:04;;;;;;;10.23;5.38;;;;;;;;;;6394232;22;20181;-53
2021/01/26 08:31:34;;;;;;;17.30;6.18;;;;;;;;;;6395284;22;20177;-52
2021/01/26 08:34:20;;;;;;;10.55;5.07;;;;;;;;;;6394691;22;20172;-54
2021/01/26 08:36:47;;;;;;;14.77;7.45;;;;;;;;;;6394644;22;20170;-53
2021/01/26 08:39:38;;;;;;;12.55;7.53;;;;;;;;;;6395300;22;20197;-60
2021/01/26 08:42:07;;;;;;;12.45;5.60;;;;;;;;;;6394818;22;20165;-55
2021/01/26 08:44:51;;;;;;;13.75;6.10;;;;;;;;;;6394453;22;20193;-57
2021/01/26 08:47:50;;;;;;;17.13;6.80;;;;;;;;;;6394544;22;20200;-50
2021/01/26 08:50:28;;;;;;;13.07;5.45;;;;;;;;;;6394150;22;20234;-58
2021/01/26 08:52:57;;;;;;;10.27;6.53;;;;;;;;;;6395637;22;20181;-53
2021/01/26 08:55:34;;;;;;;13.95;5.78;;;;;;;;;;6395091;22;20169;-55
2021/01/26 08:58:03;;;;;;;11.50;5.78;;;;;;;;;;6395789;22;20176;-59
2021/01/26 09:00:42;;;;;;;12.73;6.45;;;;;;;;;;6395323;22;20177;-59
2021/01/26 09:03:24;;;;;;;12.48;5.78;;;;;;;;;;6395429;22;20165;-60
2021/01/26 09:05:54;;;;;;;14.50;5.90;;;;;;;;;;6364443;22;20225;-56
2021/01/26 09:09:03;;;;;;;16.88;6.25;;;;;;;;;;6395210;22;20207;-59
2021/01/26 09:11:32;;;;;;;13.82;5.90;;;;;;;;;;6237786;23;20191;-56
2021/01/26 09:14:05;;;;;;;13.65;5.90;;;;;;;;;;6373726;22;20166;-57
2021/01/26 09:16:32;;;;;;;9.23;5.85;;;;;;;;;;6394128;22;20176;-55
2021/01/26 09:19:12;;;;;;;9.77;5.88;;;;;;;;;;6395288;22;20188;-55
2021/01/26 09:21:40;;;;;;;9.15;5.38;;;;;;;;;;6393972;22;20205;-55
2021/01/26 09:24:15;;;;;;;19.00;6.25;;;;;;;;;;6393843;22;20206;-50
2021/01/26 09:26:44;;;;;;;9.30;5.65;;;;;;;;;;6394624;22;20224;-49
2021/01/26 09:29:22;;;;;;;12.18;5.53;;;;;;;;;;6394928;22;20180;-54
2021/01/26 09:31:49;;;;;;;9.95;6.13;;;;;;;;;;6395057;22;20175;-53
2021/01/26 09:34:22;;;;;;;13.23;6.18;;;;;;;;;;6393887;22;20173;-55
2021/01/26 09:36:50;;;;;;;7.57;4.70;;;;;;;;;;6393551;22;20177;-57
2021/01/26 09:39:27;;;;;;;14.65;6.07;;;;;;;;;;6395071;22;20212;-54
2021/01/26 09:41:54;;;;;;;15.20;5.75;;;;;;;;;;6395359;22;20165;-54
2021/01/26 09:44:21;;;;;;;9.40;5.82;;;;;;;;;;6395015;22;20219;-53
2021/01/26 09:46:53;;;;;;;11.95;4.63;;;;;;;;;;6395714;22;20176;-55
2021/01/26 09:49:23;;;;;;;13.70;6.22;;;;;;;;;;6394346;22;20198;-58
2021/01/26 09:51:51;;;;;;;16.60;8.20;;;;;;;;;;6394584;22;20186;-57
2021/01/26 09:54:25;;;;;;;12.80;5.95;;;;;;;;;;6395289;22;20165;-52
2021/01/26 09:56:52;;;;;;;12.25;5.85;;;;;;;;;;6394664;22;20221;-57
2021/01/26 09:59:20;;;;;;;16.13;5.75;;;;;;;;;;6394635;22;20174;-57
2021/01/26 10:01:47;;;;;;;9.55;6.15;;;;;;;;;;6394248;22;20226;-55
2021/01/26 10:04:22;;;;;;;13.40;7.10;;;;;;;;;;6393968;22;20189;-59
2021/01/26 10:06:49;;;;;;;9.55;5.50;;;;;;;;;;6394207;22;20172;-59
2021/01/26 10:09:24;;;;;;;16.20;6.65;;;;;;;;;;6394919;22;20180;-60
2021/01/26 10:12:18;;;;;;;10.85;6.20;;;;;;;;;;6394526;22;20197;-58
2021/01/26 10:15:02;;;;;;;11.93;7.60;;;;;;;;;;6393829;22;20193;-56
2021/01/26 10:17:30;;;;;;;14.52;6.15;;;;;;;;;;6388755;22;20233;-54
2021/01/26 10:19:57;;;;;;;10.63;5.32;;;;;;;;;;6394340;22;20179;-56
2021/01/26 10:22:25;;;;;;;10.63;6.18;;;;;;;;;;6393747;22;20227;-55
2021/01/26 10:25:29;;;;;;;6.60;5.53;;;;;;;;;;6393860;22;20177;-60
2021/01/26 10:28:06;;;;;;;13.80;6.88;;;;;;;;;;6394793;22;20199;-55
2021/01/26 10:30:39;;;;;;;13.23;6.32;;;;;;;;;;6393117;22;20176;-54
2021/01/26 10:33:08;;;;;;;6.85;5.07;;;;;;;;;;6394330;22;20183;-55
2021/01/26 10:35:44;;;;;;;7.43;5.10;;;;;;;;;;6390014;22;20494;-52
2021/01/26 10:38:37;;;;;;;10.40;5.93;;;;;;;;;;6393790;22;20333;-59
2021/01/26 10:41:08;;;;;;;8.63;5.35;;;;;;;;;;6393785;22;20177;-58
2021/01/26 10:43:42;;;;;;;13.40;6.20;;;;;;;;;;6393897;22;20244;-58
2021/01/26 10:46:11;;;;;;;12.60;6.90;;;;;;;;;;6393669;22;20192;-56
2021/01/26 10:48:43;;;;;;;9.13;5.28;;;;;;;;;;6396206;22;20162;-55
2021/01/26 10:51:18;;;;;;;14.75;6.72;;;;;;;;;;6395670;22;20166;-53
2021/01/26 10:53:45;;;;;;;13.40;5.80;;;;;;;;;;6395241;22;20253;-57
2021/01/26 10:56:13;;;;;;;11.27;6.10;;;;;;;;;;6395295;22;20173;-59
2021/01/26 10:58:56;;;;;;;14.98;6.00;;;;;;;;;;6395952;22;20504;-53
2021/01/26 11:01:23;;;;;;;11.35;6.35;;;;;;;;;;6394540;22;20192;-58
2021/01/26 11:03:50;;;;;;;10.75;6.97;;;;;;;;;;6394797;22;20201;-52
2021/01/26 11:06:35;;;;;;;12.02;8.40;;;;;;;;;;6395147;22;20227;-54
2021/01/26 11:09:02;;;;;;;14.48;5.70;;;;;;;;;;6395802;22;20192;-50
2021/01/26 11:11:30;;;;;;;17.08;6.28;;;;;;;;;;6395265;22;20162;-56
2021/01/26 11:13:58;;;;;;;11.50;6.15;;;;;;;;;;6393742;22;20217;-57
2021/01/26 11:16:26;;;;;;;10.57;6.25;;;;;;;;;;6395381;22;20166;-53
2021/01/26 11:19:11;;;;;;;8.23;4.85;;;;;;;;;;6394660;22;20177;-56
2021/01/26 11:21:47;;;;;;;17.38;6.57;;;;;;;;;;6395242;22;20170;-57
2021/01/26 11:24:14;;;;;;;8.05;5.13;;;;;;;;;;6394540;22;20189;-54
2021/01/26 11:29:22;;;;;;;10.40;5.63;;;;;;;;;;6395594;22;20232;-48
2021/01/26 11:31:58;;;;;;;10.48;6.68;;;;;;;;;;6395574;22;20180;-57
2021/01/26 11:34:26;;;;;;;11.27;6.50;;;;;;;;;;6395259;22;20185;-55
2021/01/26 11:36:53;;;;;;;8.80;5.50;;;;;;;;;;6395415;22;20223;-51
2021/01/26 11:39:21;;;;;;;16.15;6.35;;;;;;;;;;6395393;22;20176;-57
2021/01/26 11:42:03;;;;;;;11.60;5.35;;;;;;;;;;6396336;22;20176;-50
2021/01/26 11:44:30;;;;;;;9.77;6.00;;;;;;;;;;6395412;22;20251;-52
2021/01/26 11:46:57;;;;;;;8.48;5.45;;;;;;;;;;6395017;22;20181;-60
2021/01/26 11:49:36;;;;;;;12.38;6.70;;;;;;;;;;6395944;22;20173;-53
2021/01/26 11:52:03;;;;;;;8.27;5.10;;;;;;;;;;6394818;22;20189;-55
2021/01/26 11:54:32;;;;;;;13.20;5.25;;;;;;;;;;6395784;22;20162;-58
2021/01/26 11:57:02;;;;;;;11.02;5.65;;;;;;;;;;6366478;22;20181;-52
2021/01/26 11:59:29;;;;;;;7.78;5.47;;;;;;;;;;6394854;22;20180;-59
2021/01/26 12:01:59;;;;;;;12.48;5.70;;;;;;;;;;6394513;22;20182;-59
2021/01/26 12:04:26;;;;;;;9.75;6.85;;;;;;;;;;6394725;22;20198;-56
2021/01/26 12:06:54;;;;;;;8.25;5.50;;;;;;;;;;6394960;22;20196;-52
2021/01/26 12:09:22;;;;;;;9.73;5.28;;;;;;;;;;6394841;22;20213;-54
2021/01/26 12:11:49;;;;;;;7.75;5.40;;;;;;;;;;6395136;22;20206;-51
2021/01/26 12:14:16;;;;;;;12.13;5.78;;;;;;;;;;6394897;22;20235;-56
2021/01/26 12:16:43;;;;;;;13.75;4.80;;;;;;;;;;6395465;22;20165;-59
2021/01/26 12:19:10;;;;;;;8.55;5.63;;;;;;;;;;6395097;22;20181;-56
2021/01/26 12:21:37;;;;;;;10.73;5.35;;;;;;;;;;6395399;22;20189;-58
2021/01/26 12:24:16;;;;;;;11.15;5.03;;;;;;;;;;6394558;22;20173;-54
2021/01/26 12:26:42;;;;;;;18.85;10.25;;;;;;;;;;6395241;22;20182;-54
2021/01/26 12:29:10;;;;;;;13.52;5.80;;;;;;;;;;6393455;22;20206;-54
2021/01/26 12:31:50;;;;;;;13.75;5.40;;;;;;;;;;6395272;22;20177;-55
2021/01/26 12:34:17;;;;;;;17.15;6.93;;;;;;;;;;6394983;22;20192;-57
2021/01/26 12:36:46;;;;;;;10.55;5.38;;;;;;;;;;6395146;22;20234;-59
2021/01/26 12:39:21;;;;;;;11.07;4.63;;;;;;;;;;6395509;22;20164;-55
2021/01/26 12:41:47;;;;;;;10.43;5.13;;;;;;;;;;6394692;22;20196;-59
2021/01/26 12:44:14;;;;;;;10.27;5.20;;;;;;;;;;6395035;22;20317;-57
2021/01/26 12:47:00;;;;;;;8.80;4.88;;;;;;;;;;6395169;22;20178;-52
2021/01/26 12:49:27;;;;;;;9.75;5.30;;;;;;;;;;6394908;22;20177;-56
2021/01/26 12:51:54;;;;;;;14.85;5.28;;;;;;;;;;6394835;22;20182;-57
2021/01/26 12:54:21;;;;;;;16.25;5.45;;;;;;;;;;6394635;22;20181;-54
2021/01/26 12:56:48;;;;;;;10.43;4.32;;;;;;;;;;6395217;22;20173;-57
2021/01/26 12:59:22;;;;;;;9.63;4.40;;;;;;;;;;6394537;22;20185;-57
2021/01/26 13:01:49;;;;;;;13.45;5.35;;;;;;;;;;6393990;22;20193;-56
2021/01/26 13:04:16;;;;;;;9.95;4.75;;;;;;;;;;6394178;22;20202;-53
2021/01/26 13:06:54;;;;;;;10.45;4.18;;;;;;;;;;6394924;22;20231;-53
2021/01/26 13:09:21;;;;;;;14.63;4.97;;;;;;;;;;6393781;22;20158;-54
2021/01/26 13:14:36;;;;;;;11.65;4.30;;;;;;;;;;6394323;22;20622;-59
2021/01/26 13:17:03;;;;;;;6.80;3.78;;;;;;;;;;6394129;22;20198;-57
2021/01/26 13:19:31;;;;;;;7.47;4.43;;;;;;;;;;6394278;22;20161;-57
2021/01/26 13:22:06;;;;;;;11.73;4.43;;;;;;;;;;6394768;22;20256;-55
2021/01/26 13:24:34;;;;;;;8.55;4.70;;;;;;;;;;6392353;22;20230;-59
2021/01/26 13:27:01;;;;;;;10.05;4.55;;;;;;;;;;6394210;22;20325;-59
2021/01/26 13:29:37;;;;;;;13.43;7.30;;;;;;;;;;6392952;22;20204;-59
2021/01/26 13:32:06;;;;;;;8.88;4.10;;;;;;;;;;6393615;22;20178;-53
2021/01/26 13:34:32;;;;;;;9.43;4.75;;;;;;;;;;6394131;22;20159;-56
2021/01/26 13:37:15;;;;;;;7.45;4.40;;;;;;;;;;6392979;22;20197;-56
2021/01/26 13:39:42;;;;;;;10.50;4.53;;;;;;;;;;6393090;22;20193;-54
2021/01/26 13:42:09;;;;;;;11.00;5.55;;;;;;;;;;6392750;22;20168;-55
2021/01/26 13:44:45;;;;;;;15.55;5.22;;;;;;;;;;6392569;22;20198;-56
2021/01/26 13:47:12;;;;;;;13.13;4.50;;;;;;;;;;6392118;22;20252;-50
2021/01/26 13:49:38;;;;;;;11.50;4.10;;;;;;;;;;6392586;22;20236;-53
2021/01/26 13:52:18;;;;;;;13.32;4.53;;;;;;;;;;6392382;22;20181;-56
2021/01/26 13:54:52;;;;;;;12.43;4.50;;;;;;;;;;6393172;22;20206;-54
2021/01/26 13:57:22;;;;;;;10.30;4.60;;;;;;;;;;6388014;22;20183;-60
2021/01/26 13:59:49;;;;;;;8.40;4.43;;;;;;;;;;6393565;22;20182;-53
2021/01/26 14:02:15;;;;;;;6.97;4.03;;;;;;;;;;6392680;22;20224;-47
2021/01/26 14:05:07;;;;;;;17.33;5.07;;;;;;;;;;6392500;22;20188;-59
2021/01/26 14:07:35;;;;;;;9.70;4.93;;;;;;;;;;6393195;22;20192;-50
2021/01/26 14:10:02;;;;;;;8.43;4.60;;;;;;;;;;6393710;22;20166;-51
2021/01/26 14:12:30;;;;;;;12.50;4.88;;;;;;;;;;6393246;22;20178;-56
2021/01/26 14:14:57;;;;;;;14.20;8.10;;;;;;;;;;6393575;22;20235;-57
2021/01/26 14:17:23;;;;;;;8.05;4.80;;;;;;;;;;6393216;22;20189;-57
2021/01/26 14:19:52;;;;;;;10.73;5.43;;;;;;;;;;6392731;22;20183;-56
2021/01/26 14:22:19;;;;;;;8.95;5.00;;;;;;;;;;6394727;22;20192;-56
2021/01/26 14:24:47;;;;;;;8.23;4.75;;;;;;;;;;6394471;22;20210;-53
2021/01/26 14:27:20;;;;;;;12.10;4.65;;;;;;;;;;6395166;22;20204;-59
2021/01/26 14:29:47;;;;;;;7.95;3.90;;;;;;;;;;6395417;22;20189;-56
2021/01/26 14:32:15;;;;;;;18.55;4.97;;;;;;;;;;6394036;22;20186;-54
2021/01/26 14:34:42;;;;;;;8.13;4.60;;;;;;;;;;6393355;22;20179;-51
2021/01/26 14:37:09;;;;;;;8.52;4.07;;;;;;;;;;6394523;22;20170;-59
2021/01/26 14:39:36;;;;;;;9.52;5.00;;;;;;;;;;6396492;22;20185;-50
2021/01/26 14:42:05;;;;;;;12.32;7.70;;;;;;;;;;6395576;22;20182;-58
2021/01/26 14:44:33;;;;;;;8.32;4.68;;;;;;;;;;6395208;22;20196;-57
2021/01/26 14:47:00;;;;;;;7.05;4.45;;;;;;;;;;6395295;22;20180;-56
2021/01/26 14:49:53;;;;;;;9.57;5.28;;;;;;;;;;6395666;22;20181;-53
2021/01/26 14:52:20;;;;;;;5.55;3.85;;;;;;;;;;6396421;22;20176;-48
2021/01/26 14:55:00;;;;;;;6.85;4.20;;;;;;;;;;6396263;22;20172;-60
2021/01/26 14:57:36;;;;;;;8.50;4.38;;;;;;;;;;6395817;22;20162;-56
2021/01/26 15:00:04;;;;;;;11.02;3.65;;;;;;;;;;6396098;22;20158;-53
2021/01/26 15:02:31;;;;;;;6.05;4.18;;;;;;;;;;6395100;22;20261;-52
2021/01/26 15:04:58;;;;;;;7.25;4.55;;;;;;;;;;6394865;22;20223;-54
2021/01/26 15:07:24;;;;;;;10.55;3.88;;;;;;;;;;6394325;22;20170;-52
2021/01/26 15:09:51;;;;;;;14.00;5.18;;;;;;;;;;6394907;22;20181;-49
2021/01/26 15:12:25;;;;;;;14.50;5.63;;;;;;;;;;6394911;22;20171;-52
2021/01/26 15:14:55;;;;;;;9.10;5.07;;;;;;;;;;6395497;22;20216;-55
2021/01/26 15:17:23;;;;;;;11.18;4.70;;;;;;;;;;6395304;22;20182;-56